Time;durP1;ratioP1;P1;durP2;ratioP2;P2;SDS_P1;SDS_P2;PMS_P1;PMS_P2;Temp;Humidity;BMP_temperature;BMP_pressure;BME280_temperature;BME280_humidity;BME280_pressure;Samples;Min_cycle;Max_cycle;Signal;HPM_P1;HPM_P2
2022/09/27 00:00:32;;;;;;;7.50;0.93;;;9.50;99.90;;;;;;5027543;28;20033;-76
2022/09/27 00:02:58;;;;;;;5.72;0.88;;;9.40;99.90;;;;;;5034616;28;20036;-66
2022/09/27 00:05:24;;;;;;;5.80;0.95;;;9.30;99.90;;;;;;5034993;28;20102;-64
2022/09/27 00:07:50;;;;;;;9.40;0.93;;;9.30;99.90;;;;;;5041285;28;20040;-66
2022/09/27 00:10:16;;;;;;;10.18;1.33;;;9.40;99.90;;;;;;5046157;28;20399;-65
2022/09/27 00:12:42;;;;;;;8.88;1.00;;;9.30;99.90;;;;;;5051624;28;20071;-66
2022/09/27 00:15:09;;;;;;;6.25;0.90;;;9.30;99.90;;;;;;5065954;28;20049;-65
2022/09/27 00:17:35;;;;;;;6.22;0.70;;;9.20;99.90;;;;;;5048132;28;20056;-66
2022/09/27 00:20:02;;;;;;;4.50;0.70;;;9.30;99.90;;;;;;5054215;28;20036;-65
2022/09/27 00:22:28;;;;;;;9.38;0.90;;;9.30;99.90;;;;;;5067014;28;20192;-66
2022/09/27 00:24:54;;;;;;;5.05;0.63;;;9.20;99.90;;;;;;5038352;28;20075;-66
2022/09/27 00:27:20;;;;;;;8.30;0.80;;;9.20;99.90;;;;;;5047567;28;20500;-66
2022/09/27 00:29:46;;;;;;;4.88;0.80;;;9.30;99.90;;;;;;5069593;28;20043;-66
2022/09/27 00:32:13;;;;;;;3.70;0.75;;;9.40;99.90;;;;;;5046919;28;20068;-66
2022/09/27 00:34:39;;;;;;;3.28;0.73;;;9.40;99.90;;;;;;5066923;28;20045;-65
2022/09/27 00:37:05;;;;;;;4.70;0.60;;;9.40;99.90;;;;;;5054585;28;20509;-65
2022/09/27 00:39:31;;;;;;;8.07;1.85;;;9.50;99.90;;;;;;5053338;28;20542;-66
2022/09/27 00:41:56;;;;;;;3.28;0.60;;;9.60;99.90;;;;;;5049724;28;20124;-65
2022/09/27 00:44:28;;;;;;;5.20;0.90;;;9.50;99.90;;;;;;5049479;28;20136;-66
2022/09/27 00:47:23;;;;;;;4.72;0.73;;;9.60;99.90;;;;;;5049095;28;20044;-65
2022/09/27 00:50:24;;;;;;;4.63;0.73;;;9.60;99.90;;;;;;5044603;28;20051;-67
2022/09/27 00:53:14;;;;;;;5.10;0.70;;;9.60;99.90;;;;;;5039157;28;20044;-66
2022/09/27 00:55:45;;;;;;;7.38;0.90;;;9.60;99.90;;;;;;5051966;28;20040;-65
2022/09/27 00:58:14;;;;;;;3.33;0.80;;;9.60;99.90;;;;;;5046260;28;20372;-65
2022/09/27 01:00:44;;;;;;;7.28;0.82;;;9.60;99.90;;;;;;5056400;28;20033;-66
2022/09/27 01:03:19;;;;;;;8.18;0.98;;;9.60;99.90;;;;;;5052425;28;20041;-66
2022/09/27 01:05:45;;;;;;;4.80;1.00;;;9.50;99.90;;;;;;5055507;28;20070;-65
2022/09/27 01:08:11;;;;;;;8.07;1.15;;;9.60;99.90;;;;;;5059041;28;20050;-66
2022/09/27 01:10:45;;;;;;;6.32;1.00;;;9.60;99.90;;;;;;5036889;28;20045;-66
2022/09/27 01:13:25;;;;;;;8.05;1.15;;;9.50;99.90;;;;;;5065199;28;20041;-66
2022/09/27 01:16:16;;;;;;;4.78;0.90;;;9.50;99.90;;;;;;5054743;28;20044;-66
2022/09/27 01:19:03;;;;;;;4.38;0.55;;;9.50;99.90;;;;;;5053285;28;20129;-65
2022/09/27 01:21:47;;;;;;;7.60;0.90;;;9.50;99.90;;;;;;5050612;28;20060;-66
2022/09/27 01:24:47;;;;;;;5.53;0.95;;;9.30;99.90;;;;;;5049613;28;20552;-67
2022/09/27 01:27:32;;;;;;;7.30;0.80;;;9.30;99.90;;;;;;5074326;28;20463;-66
2022/09/27 01:30:16;;;;;;;6.82;0.70;;;9.30;99.90;;;;;;5058145;28;20522;-66
2022/09/27 01:33:05;;;;;;;3.58;0.70;;;9.20;99.90;;;;;;5051022;28;20048;-66
2022/09/27 01:36:20;;;;;;;3.95;0.70;;;9.20;99.90;;;;;;5051607;28;20040;-66
2022/09/27 01:39:12;;;;;;;5.93;0.70;;;9.20;99.90;;;;;;5051642;28;20546;-65
2022/09/27 01:41:51;;;;;;;8.60;0.90;;;9.20;99.90;;;;;;5056577;28;20036;-65
2022/09/27 01:44:36;;;;;;;6.72;0.82;;;9.20;99.90;;;;;;5065409;28;20047;-65
2022/09/27 01:47:07;;;;;;;4.70;0.73;;;9.30;99.90;;;;;;5067904;28;20044;-66
2022/09/27 01:49:41;;;;;;;7.80;0.85;;;9.40;99.90;;;;;;5047489;28;20450;-66
2022/09/27 01:52:10;;;;;;;10.02;0.82;;;9.30;99.90;;;;;;5066652;28;20044;-66
2022/09/27 01:54:49;;;;;;;4.10;0.80;;;9.30;99.90;;;;;;5054308;28;20106;-66
2022/09/27 01:57:21;;;;;;;4.13;0.73;;;9.20;99.90;;;;;;5049428;28;20046;-65
2022/09/27 01:59:53;;;;;;;3.83;0.85;;;9.20;99.90;;;;;;5038676;28;20543;-64
2022/09/27 02:02:23;;;;;;;5.03;0.65;;;9.20;99.90;;;;;;5051979;28;20438;-67
2022/09/27 02:04:54;;;;;;;9.90;0.70;;;9.20;99.90;;;;;;5051506;28;20033;-66
2022/09/27 02:07:26;;;;;;;2.63;0.68;;;9.20;99.90;;;;;;5056590;28;20507;-66
2022/09/27 02:10:01;;;;;;;6.50;0.75;;;9.20;99.90;;;;;;5049375;28;20059;-66
2022/09/27 02:12:31;;;;;;;5.45;0.60;;;9.20;99.90;;;;;;5048400;28;20503;-65
2022/09/27 02:15:08;;;;;;;7.63;1.20;;;9.30;99.90;;;;;;5049406;28;20618;-65
2022/09/27 02:17:43;;;;;;;6.50;1.05;;;9.20;99.90;;;;;;5057904;28;20048;-65
2022/09/27 02:20:18;;;;;;;6.50;0.90;;;9.20;99.90;;;;;;5056771;28;20197;-65
2022/09/27 02:23:03;;;;;;;5.60;0.60;;;9.20;99.90;;;;;;5040699;28;20488;-65
2022/09/27 02:25:41;;;;;;;4.18;0.70;;;9.20;99.90;;;;;;5051746;28;20132;-65
2022/09/27 02:28:20;;;;;;;6.40;0.68;;;9.30;99.90;;;;;;5049593;28;20036;-64
2022/09/27 02:30:45;;;;;;;2.75;0.50;;;9.40;99.90;;;;;;5065953;28;20422;-67
2022/09/27 02:33:11;;;;;;;1.45;0.50;;;9.40;99.90;;;;;;5050508;28;20048;-64
2022/09/27 02:35:37;;;;;;;3.97;0.70;;;9.40;99.90;;;;;;5050845;28;20123;-66
2022/09/27 02:38:05;;;;;;;3.10;0.30;;;9.30;99.90;;;;;;5033979;28;20055;-66
2022/09/27 02:40:33;;;;;;;1.40;0.30;;;9.30;99.90;;;;;;5048761;28;20060;-66
2022/09/27 02:42:59;;;;;;;4.18;0.47;;;9.30;99.90;;;;;;5055618;28;20062;-65
2022/09/27 02:45:30;;;;;;;3.50;0.50;;;9.20;99.90;;;;;;5048383;28;20044;-66
2022/09/27 02:48:29;;;;;;;3.03;0.68;;;9.20;99.90;;;;;;5053163;28;20036;-65
2022/09/27 02:51:16;;;;;;;6.35;0.50;;;9.20;99.90;;;;;;5067426;28;20401;-65
2022/09/27 02:53:52;;;;;;;2.50;0.40;;;9.20;99.90;;;;;;5063303;28;20049;-65
2022/09/27 02:56:35;;;;;;;1.80;0.40;;;9.20;99.90;;;;;;5057762;28;20048;-66
2022/09/27 02:59:17;;;;;;;5.18;0.60;;;9.20;99.90;;;;;;5064665;28;20040;-65
2022/09/27 03:02:11;;;;;;;5.90;0.70;;;9.20;99.90;;;;;;5038998;28;20052;-66
2022/09/27 03:04:46;;;;;;;2.38;0.50;;;9.20;99.90;;;;;;5054241;28;21771;-65
2022/09/27 03:07:13;;;;;;;4.93;0.60;;;9.10;99.90;;;;;;5046998;28;20090;-66
2022/09/27 03:09:46;;;;;;;4.07;0.60;;;9.10;99.90;;;;;;5070681;28;20567;-65
2022/09/27 03:12:13;;;;;;;3.00;0.50;;;9.10;99.90;;;;;;5047049;28;20041;-65
2022/09/27 03:14:39;;;;;;;1.77;0.63;;;9.00;99.90;;;;;;5066342;28;20086;-65
2022/09/27 03:17:05;;;;;;;3.65;0.50;;;8.90;99.90;;;;;;5052937;28;20395;-64
2022/09/27 03:19:30;;;;;;;7.32;0.65;;;9.00;99.90;;;;;;5049997;28;20064;-64
2022/09/27 03:21:56;;;;;;;6.88;0.65;;;8.90;99.90;;;;;;5064340;28;20037;-66
2022/09/27 03:24:21;;;;;;;4.82;0.60;;;8.80;99.90;;;;;;5054182;28;20390;-65
2022/09/27 03:26:47;;;;;;;4.53;0.70;;;8.90;99.90;;;;;;5048153;28;20415;-65
2022/09/27 03:29:13;;;;;;;3.15;0.60;;;8.80;99.90;;;;;;5051756;28;20139;-65
2022/09/27 03:31:39;;;;;;;4.28;0.60;;;8.70;99.90;;;;;;5041138;28;20059;-66
2022/09/27 03:34:04;;;;;;;4.97;0.50;;;8.70;99.90;;;;;;5049548;28;20598;-66
2022/09/27 03:36:30;;;;;;;6.15;0.88;;;8.80;99.90;;;;;;5048916;28;20040;-66
2022/09/27 03:38:56;;;;;;;4.80;0.73;;;8.70;99.90;;;;;;5055998;28;20102;-66
2022/09/27 03:41:21;;;;;;;2.90;0.75;;;8.70;99.90;;;;;;5047552;28;20116;-66
2022/09/27 03:43:47;;;;;;;4.43;0.80;;;8.70;99.90;;;;;;5048700;28;20044;-66
2022/09/27 03:46:12;;;;;;;3.58;0.60;;;8.60;99.90;;;;;;5047484;28;20032;-65
2022/09/27 03:48:38;;;;;;;5.10;0.63;;;8.70;99.90;;;;;;5046157;28;20082;-66
2022/09/27 03:51:04;;;;;;;4.70;0.70;;;8.70;99.90;;;;;;5051170;28;20044;-66
2022/09/27 03:53:29;;;;;;;7.20;0.50;;;8.60;99.90;;;;;;5058925;28;20136;-66
2022/09/27 03:55:55;;;;;;;4.65;0.85;;;8.70;99.90;;;;;;5047056;28;20072;-66
2022/09/27 03:58:21;;;;;;;7.00;0.63;;;8.60;99.90;;;;;;5052487;28;20170;-66
2022/09/27 04:00:48;;;;;;;2.92;0.60;;;8.60;99.90;;;;;;5047123;28;20139;-67
2022/09/27 04:03:14;;;;;;;6.40;0.70;;;8.60;99.90;;;;;;5061857;28;20040;-67
2022/09/27 04:05:39;;;;;;;6.78;0.68;;;8.60;99.90;;;;;;5040765;28;20723;-67
2022/09/27 04:08:06;;;;;;;3.92;0.60;;;8.50;99.90;;;;;;5067568;28;20123;-66
2022/09/27 04:10:32;;;;;;;5.60;0.75;;;8.60;99.90;;;;;;5051886;28;20545;-66
2022/09/27 04:12:58;;;;;;;3.55;0.57;;;8.60;99.90;;;;;;5051463;28;20037;-66
2022/09/27 04:15:23;;;;;;;4.75;0.90;;;8.50;99.90;;;;;;5052036;28;20047;-66
2022/09/27 04:17:49;;;;;;;5.90;0.68;;;8.60;99.90;;;;;;5047573;28;20589;-66
2022/09/27 04:20:17;;;;;;;6.13;0.70;;;8.60;99.90;;;;;;5046300;28;20041;-67
2022/09/27 04:22:44;;;;;;;6.30;0.70;;;8.60;99.90;;;;;;5045342;28;20491;-67
2022/09/27 04:25:10;;;;;;;2.72;0.50;;;8.60;99.90;;;;;;5045834;28;20056;-66
2022/09/27 04:27:36;;;;;;;5.50;0.60;;;8.50;99.90;;;;;;5051762;28;20483;-67
2022/09/27 04:30:03;;;;;;;3.70;0.60;;;8.50;99.90;;;;;;5054987;28;20045;-67
2022/09/27 04:32:29;;;;;;;3.13;0.60;;;8.50;99.90;;;;;;5069478;28;20037;-66
2022/09/27 04:37:39;;;;;;;3.60;0.60;;;8.50;99.90;;;;;;5053873;28;20183;-66
2022/09/27 04:40:05;;;;;;;5.28;0.73;;;8.40;99.90;;;;;;5053352;28;20048;-66
2022/09/27 04:42:31;;;;;;;4.93;0.98;;;8.40;99.90;;;;;;5071274;28;20687;-67
2022/09/27 04:44:57;;;;;;;5.28;0.70;;;8.40;99.90;;;;;;5054536;28;20036;-66
2022/09/27 04:47:23;;;;;;;3.83;0.80;;;8.30;99.90;;;;;;5058903;28;20046;-66
2022/09/27 04:49:48;;;;;;;4.88;0.63;;;8.20;99.90;;;;;;5052461;28;20423;-65
2022/09/27 04:52:14;;;;;;;3.50;0.80;;;8.10;99.90;;;;;;5056931;28;20399;-65
2022/09/27 04:54:40;;;;;;;3.60;1.90;;;8.10;99.90;;;;;;5057929;28;20041;-66
2022/09/27 04:57:05;;;;;;;5.57;1.67;;;8.00;99.90;;;;;;5060821;28;20708;-66
2022/09/27 04:59:31;;;;;;;5.07;1.10;;;8.00;99.90;;;;;;5058570;28;20032;-66
2022/09/27 05:01:59;;;;;;;4.85;0.90;;;7.90;99.90;;;;;;5048261;28;20474;-66
2022/09/27 05:04:26;;;;;;;5.10;1.00;;;7.90;99.90;;;;;;5052910;28;20387;-66
2022/09/27 05:06:52;;;;;;;6.65;0.75;;;7.90;99.90;;;;;;5050714;28;20136;-66
2022/09/27 05:09:18;;;;;;;6.25;0.85;;;7.90;99.90;;;;;;5062472;28;20454;-65
2022/09/27 05:11:44;;;;;;;7.65;1.02;;;7.90;99.90;;;;;;5049675;28;20037;-66
2022/09/27 05:14:10;;;;;;;7.60;0.88;;;7.90;99.90;;;;;;5049691;28;20036;-65
2022/09/27 05:16:36;;;;;;;5.13;0.65;;;7.90;99.90;;;;;;5047475;28;20710;-65
2022/09/27 05:19:02;;;;;;;4.10;0.80;;;7.90;99.90;;;;;;5052187;28;20082;-65
2022/09/27 05:21:29;;;;;;;6.63;0.85;;;7.80;99.90;;;;;;5048731;28;20037;-65
2022/09/27 05:23:54;;;;;;;9.10;1.30;;;7.80;99.90;;;;;;5049651;28;20060;-65
2022/09/27 05:26:20;;;;;;;6.00;1.00;;;7.70;99.90;;;;;;5055227;28;20072;-65
2022/09/27 05:28:46;;;;;;;7.78;1.00;;;7.70;99.90;;;;;;5049288;28;20083;-65
2022/09/27 05:31:13;;;;;;;8.75;1.10;;;7.70;99.90;;;;;;5054928;28;20037;-65
2022/09/27 05:33:39;;;;;;;4.10;0.93;;;7.70;99.90;;;;;;5050932;28;20080;-64
2022/09/27 05:36:05;;;;;;;5.93;1.02;;;7.70;99.90;;;;;;5050758;28;20041;-64
2022/09/27 05:38:31;;;;;;;5.65;0.80;;;7.70;99.90;;;;;;5043983;28;20040;-65
2022/09/27 05:40:57;;;;;;;5.32;0.90;;;7.70;99.90;;;;;;5052612;28;20036;-65
2022/09/27 05:43:23;;;;;;;3.50;0.80;;;7.70;99.90;;;;;;5054906;28;20403;-65
2022/09/27 05:45:51;;;;;;;7.68;1.00;;;7.60;99.90;;;;;;5053899;28;20044;-64
2022/09/27 05:48:17;;;;;;;9.32;0.98;;;7.70;99.90;;;;;;5055449;28;20037;-65
2022/09/27 05:50:43;;;;;;;11.35;1.15;;;7.70;99.90;;;;;;5043446;28;20519;-66
2022/09/27 05:53:10;;;;;;;11.15;1.33;;;7.70;99.90;;;;;;5041863;28;20426;-65
2022/09/27 05:55:35;;;;;;;7.28;1.00;;;7.90;99.90;;;;;;5053658;28;20181;-66
2022/09/27 05:58:04;;;;;;;6.55;1.17;;;7.80;99.90;;;;;;5054730;28;20120;-65
2022/09/27 06:00:30;;;;;;;3.83;0.88;;;7.80;99.90;;;;;;5055837;28;20483;-65
2022/09/27 06:02:59;;;;;;;8.95;1.30;;;7.90;99.90;;;;;;5053123;28;20040;-64
2022/09/27 06:05:26;;;;;;;9.27;1.50;;;7.90;99.90;;;;;;5052007;28;20487;-65
2022/09/27 06:07:56;;;;;;;8.63;1.00;;;7.90;99.90;;;;;;5050448;28;20041;-64
2022/09/27 06:10:22;;;;;;;10.00;1.13;;;8.00;99.90;;;;;;5068357;28;20124;-65
2022/09/27 06:12:49;;;;;;;7.70;1.30;;;8.10;99.90;;;;;;5050622;28;20554;-65
2022/09/27 06:15:15;;;;;;;7.78;1.02;;;8.10;99.90;;;;;;5049499;28;20051;-64
2022/09/27 06:17:40;;;;;;;5.05;1.05;;;8.20;99.90;;;;;;5032804;28;20037;-65
2022/09/27 06:20:07;;;;;;;9.63;1.15;;;8.10;99.90;;;;;;5070100;28;20044;-65
2022/09/27 06:22:33;;;;;;;6.47;1.42;;;8.10;99.90;;;;;;5060710;28;20380;-64
2022/09/27 06:24:59;;;;;;;7.45;1.65;;;8.20;99.90;;;;;;5054605;28;20043;-65
2022/09/27 06:27:25;;;;;;;7.60;1.25;;;8.20;99.90;;;;;;5072793;28;20039;-65
2022/09/27 06:29:51;;;;;;;7.45;1.33;;;8.20;99.90;;;;;;5055216;28;20041;-65
2022/09/27 06:32:16;;;;;;;5.95;0.98;;;8.20;99.90;;;;;;5052333;28;20391;-66
2022/09/27 06:34:42;;;;;;;4.70;1.20;;;8.30;99.90;;;;;;5049974;28;20049;-65
2022/09/27 06:37:07;;;;;;;6.03;1.20;;;8.40;99.90;;;;;;5052218;28;20554;-65
2022/09/27 06:39:33;;;;;;;3.10;1.00;;;8.50;99.90;;;;;;5054603;28;20045;-65
2022/09/27 06:41:59;;;;;;;3.40;0.60;;;8.70;99.90;;;;;;5051280;28;20087;-65
2022/09/27 06:44:25;;;;;;;5.45;0.85;;;8.80;99.90;;;;;;5058241;28;20071;-65
2022/09/27 06:46:52;;;;;;;1.58;0.52;;;9.00;99.90;;;;;;5046960;28;20120;-65
2022/09/27 06:49:18;;;;;;;4.15;0.77;;;9.10;99.90;;;;;;5048879;28;20045;-64
2022/09/27 06:51:44;;;;;;;7.13;0.70;;;9.20;99.90;;;;;;5048708;28;20052;-64
2022/09/27 06:54:10;;;;;;;5.40;0.70;;;9.40;99.90;;;;;;5048354;28;20036;-66
2022/09/27 06:56:35;;;;;;;2.38;0.57;;;9.40;99.90;;;;;;5066476;28;20479;-65
2022/09/27 07:01:45;;;;;;;4.82;0.90;;;9.60;99.90;;;;;;5049501;28;20074;-65
2022/09/27 07:04:12;;;;;;;5.82;1.73;;;9.50;99.90;;;;;;5049484;28;20041;-65
2022/09/27 07:06:37;;;;;;;4.63;1.02;;;9.50;99.90;;;;;;5050499;28;20048;-64
2022/09/27 07:09:05;;;;;;;4.72;1.00;;;9.70;99.90;;;;;;5054842;28;20373;-66
2022/09/27 07:11:35;;;;;;;1.55;0.43;;;9.70;99.90;;;;;;5053425;28;20029;-66
2022/09/27 07:14:02;;;;;;;4.43;0.63;;;9.80;99.90;;;;;;5049646;28;20037;-66
2022/09/27 07:16:28;;;;;;;3.92;0.73;;;9.90;99.90;;;;;;5048341;28;20044;-64
2022/09/27 07:18:54;;;;;;;2.35;0.60;;;10.10;99.90;;;;;;5046957;28;20033;-68
2022/09/27 07:21:19;;;;;;;1.90;0.60;;;10.20;99.90;;;;;;5049091;28;20107;-66
2022/09/27 07:23:45;;;;;;;3.22;0.40;;;10.20;99.90;;;;;;5049677;28;20398;-67
2022/09/27 07:26:11;;;;;;;2.85;0.30;;;10.30;99.90;;;;;;5049538;28;20131;-65
2022/09/27 07:28:40;;;;;;;4.53;0.40;;;10.30;99.90;;;;;;5045473;28;20073;-66
2022/09/27 07:31:06;;;;;;;4.53;0.52;;;10.50;99.90;;;;;;5036980;28;20106;-66
2022/09/27 07:33:32;;;;;;;2.92;0.57;;;10.60;99.90;;;;;;5047978;28;20577;-67
2022/09/27 07:35:58;;;;;;;2.78;0.40;;;10.60;99.90;;;;;;5048451;28;20048;-65
2022/09/27 07:38:24;;;;;;;3.90;0.50;;;10.70;99.90;;;;;;5049503;28;20124;-66
2022/09/27 07:40:49;;;;;;;3.80;0.50;;;10.80;99.90;;;;;;5047224;28;20119;-66
2022/09/27 07:43:15;;;;;;;2.45;0.50;;;10.80;99.90;;;;;;5048238;28;20041;-66
2022/09/27 07:45:40;;;;;;;4.53;0.60;;;10.90;99.90;;;;;;5058626;28;20052;-68
2022/09/27 07:48:09;;;;;;;2.22;0.40;;;10.90;99.90;;;;;;5047870;28;20124;-68
2022/09/27 07:50:34;;;;;;;4.15;0.32;;;10.90;99.90;;;;;;5048981;28;20503;-66
2022/09/27 07:53:00;;;;;;;3.78;0.60;;;10.90;99.90;;;;;;5048142;28;20076;-66
2022/09/27 07:55:26;;;;;;;2.47;0.32;;;11.00;99.90;;;;;;5032130;28;20045;-68
2022/09/27 07:58:01;;;;;;;2.72;0.55;;;11.00;99.90;;;;;;5049410;28;20115;-68
2022/09/27 08:00:26;;;;;;;3.00;0.50;;;11.10;99.90;;;;;;5047486;28;20040;-68
2022/09/27 08:02:52;;;;;;;3.08;0.30;;;11.00;99.90;;;;;;5062164;28;20045;-65
2022/09/27 08:05:18;;;;;;;3.65;0.40;;;11.10;99.90;;;;;;5048751;28;20103;-70
2022/09/27 08:07:43;;;;;;;0.85;0.30;;;11.10;99.90;;;;;;5049378;28;20045;-66
2022/09/27 08:10:09;;;;;;;1.13;0.20;;;11.00;99.90;;;;;;5048608;28;20049;-65
2022/09/27 08:12:35;;;;;;;2.13;0.40;;;11.20;99.90;;;;;;5046424;28;20075;-65
2022/09/27 08:15:01;;;;;;;5.07;0.50;;;11.40;99.90;;;;;;5049075;28;20044;-66
2022/09/27 08:17:33;;;;;;;2.13;0.50;;;11.50;99.90;;;;;;5046279;28;20048;-67
2022/09/27 08:20:01;;;;;;;6.97;0.53;;;11.50;99.90;;;;;;5061345;28;20044;-66
2022/09/27 08:22:26;;;;;;;2.65;0.50;;;11.50;99.90;;;;;;5062460;28;20064;-67
2022/09/27 08:24:52;;;;;;;1.77;0.30;;;11.40;99.90;;;;;;5048049;28;20029;-67
2022/09/27 08:27:17;;;;;;;4.85;0.90;;;11.30;99.90;;;;;;5048807;28;20049;-66
2022/09/27 08:29:43;;;;;;;2.28;0.50;;;11.20;99.90;;;;;;5048684;28;20041;-66
2022/09/27 08:32:10;;;;;;;2.28;0.70;;;11.20;99.90;;;;;;5045621;28;20655;-66
2022/09/27 08:34:36;;;;;;;7.70;0.60;;;11.10;99.90;;;;;;5048719;28;20353;-68
2022/09/27 08:37:02;;;;;;;3.67;0.40;;;11.00;99.90;;;;;;5054962;28;20044;-67
2022/09/27 08:39:27;;;;;;;1.85;0.55;;;11.00;99.90;;;;;;5049530;28;20040;-67
2022/09/27 08:42:05;;;;;;;6.18;0.75;;;10.90;99.90;;;;;;5047632;28;20041;-68
2022/09/27 08:44:48;;;;;;;4.25;0.50;;;11.00;99.90;;;;;;5048254;28;20033;-68
2022/09/27 08:47:27;;;;;;;2.25;0.30;;;11.00;99.90;;;;;;5046670;28;20056;-66
2022/09/27 08:50:00;;;;;;;2.28;0.30;;;11.00;99.90;;;;;;5047277;28;20095;-67
2022/09/27 08:52:41;;;;;;;4.18;0.40;;;11.20;99.90;;;;;;5048702;28;20313;-66
2022/09/27 08:55:21;;;;;;;4.47;0.40;;;11.40;99.90;;;;;;5044343;28;20037;-66
2022/09/27 08:57:52;;;;;;;1.77;0.40;;;11.60;99.90;;;;;;5031737;28;20037;-66
2022/09/27 09:00:18;;;;;;;3.53;0.40;;;11.60;99.90;;;;;;5048916;28;20044;-66
2022/09/27 09:02:43;;;;;;;1.73;0.52;;;11.40;99.90;;;;;;5052353;28;20041;-65
2022/09/27 09:05:15;;;;;;;3.50;0.40;;;11.30;99.90;;;;;;5050438;28;20491;-64
2022/09/27 09:08:07;;;;;;;4.03;0.82;;;10.90;99.90;;;;;;5056556;28;20051;-65
2022/09/27 09:14:12;;;;;;;2.22;0.50;;;10.30;99.90;;;;;;5042289;28;20399;-65
2022/09/27 09:16:59;;;;;;;3.55;0.60;;;10.10;99.90;;;;;;5057173;28;20127;-65
2022/09/27 09:19:51;;;;;;;5.07;0.60;;;10.00;99.90;;;;;;5062554;28;20289;-65
2022/09/27 09:22:41;;;;;;;2.90;0.50;;;10.00;99.90;;;;;;5060075;28;20391;-65
2022/09/27 09:25:30;;;;;;;4.00;0.70;;;10.00;99.90;;;;;;5061445;28;20476;-65
2022/09/27 09:28:18;;;;;;;4.07;0.47;;;10.10;99.90;;;;;;5058071;28;20049;-65
2022/09/27 09:31:01;;;;;;;3.80;0.50;;;10.00;99.90;;;;;;5076059;28;20044;-65
2022/09/27 09:33:30;;;;;;;2.70;0.38;;;9.90;99.90;;;;;;5060681;28;20040;-65
2022/09/27 09:36:21;;;;;;;3.00;0.63;;;9.90;99.90;;;;;;5039951;28;21507;-66
2022/09/27 09:38:54;;;;;;;5.55;0.60;;;9.80;99.90;;;;;;5032418;28;20053;-66
2022/09/27 09:41:45;;;;;;;4.10;0.68;;;9.90;99.90;;;;;;5055952;28;21283;-65
2022/09/27 09:44:32;;;;;;;2.95;0.65;;;10.00;99.90;;;;;;5069577;28;20525;-66
2022/09/27 09:47:02;;;;;;;3.70;0.50;;;10.00;99.90;;;;;;5055939;28;20044;-66
2022/09/27 09:49:42;;;;;;;3.08;0.60;;;10.10;99.90;;;;;;5059304;28;20511;-66
2022/09/27 09:52:18;;;;;;;2.88;0.57;;;10.20;99.90;;;;;;5072869;28;20052;-65
2022/09/27 09:54:52;;;;;;;1.05;0.43;;;10.30;99.90;;;;;;5048892;28;20086;-65
2022/09/27 09:57:24;;;;;;;3.45;0.60;;;10.30;99.90;;;;;;5051803;28;20063;-65
2022/09/27 10:00:13;;;;;;;4.45;0.70;;;10.50;99.90;;;;;;5051303;28;20083;-65
2022/09/27 10:02:42;;;;;;;4.88;0.95;;;10.80;99.90;;;;;;5052275;28;20051;-66
2022/09/27 10:05:15;;;;;;;5.30;0.70;;;10.90;99.90;;;;;;5048976;28;20044;-65
2022/09/27 10:07:41;;;;;;;2.25;0.60;;;11.00;99.90;;;;;;5051324;28;20048;-66
2022/09/27 10:10:11;;;;;;;3.30;0.60;;;11.30;99.90;;;;;;5049501;28;20045;-66
2022/09/27 10:12:36;;;;;;;2.45;0.50;;;11.30;99.90;;;;;;5050823;28;20302;-66
2022/09/27 10:15:04;;;;;;;2.30;0.60;;;11.50;99.90;;;;;;5051197;28;20044;-66
2022/09/27 10:17:40;;;;;;;3.38;0.80;;;11.60;99.90;;;;;;5052319;28;20376;-66
2022/09/27 10:20:21;;;;;;;2.90;0.43;;;11.80;99.90;;;;;;5064518;28;20529;-65
2022/09/27 10:22:53;;;;;;;6.15;0.70;;;11.80;99.90;;;;;;5046712;28;20578;-66
2022/09/27 10:25:18;;;;;;;3.92;1.05;;;11.70;99.90;;;;;;5049724;28;20072;-66
2022/09/27 10:27:51;;;;;;;4.85;0.70;;;11.80;99.90;;;;;;5049267;28;20076;-67
2022/09/27 10:30:25;;;;;;;2.20;0.90;;;12.00;99.90;;;;;;5050797;28;20049;-67
2022/09/27 10:32:55;;;;;;;4.22;0.70;;;12.00;99.90;;;;;;5048091;28;20276;-65
2022/09/27 10:35:40;;;;;;;1.83;0.47;;;11.90;99.90;;;;;;5067092;28;20098;-65
2022/09/27 10:38:16;;;;;;;2.85;0.40;;;11.50;99.90;;;;;;5051061;28;20059;-68
2022/09/27 10:40:42;;;;;;;0.88;0.20;;;11.00;99.90;;;;;;5065417;28;20041;-64
2022/09/27 10:43:40;;;;;;;0.40;0.20;;;10.60;99.90;;;;;;5050102;28;20475;-66
2022/09/27 10:46:18;;;;;;;2.50;0.30;;;10.50;99.90;;;;;;5060203;28;20183;-67
2022/09/27 10:48:44;;;;;;;4.05;0.30;;;10.10;99.90;;;;;;5053251;28;20060;-66
2022/09/27 10:51:24;;;;;;;1.20;0.20;;;10.00;99.90;;;;;;5075655;28;20068;-64
2022/09/27 10:53:50;;;;;;;1.90;0.30;;;9.80;99.90;;;;;;5069101;28;20045;-64
2022/09/27 10:56:23;;;;;;;1.13;0.30;;;9.80;99.90;;;;;;5059966;28;20093;-66
2022/09/27 10:58:50;;;;;;;3.83;0.30;;;9.80;99.90;;;;;;5056052;28;20090;-65
2022/09/27 11:01:16;;;;;;;4.65;0.40;;;9.60;99.90;;;;;;5054871;28;20471;-64
2022/09/27 11:03:49;;;;;;;1.45;0.30;;;9.70;99.90;;;;;;5060231;28;20032;-65
2022/09/27 11:06:24;;;;;;;4.45;0.50;;;9.70;99.90;;;;;;5062660;28;20561;-66
2022/09/27 11:08:51;;;;;;;1.42;0.32;;;9.60;99.90;;;;;;5052237;28;20535;-66
2022/09/27 11:11:20;;;;;;;2.10;0.40;;;9.60;99.90;;;;;;5051898;28;20053;-66
2022/09/27 11:14:04;;;;;;;5.15;0.43;;;9.60;99.90;;;;;;5055671;28;20045;-65
2022/09/27 11:17:05;;;;;;;1.45;0.28;;;9.60;99.90;;;;;;5048143;28;20414;-64
2022/09/27 11:19:51;;;;;;;3.63;0.38;;;9.70;99.90;;;;;;5055630;28;20033;-65
2022/09/27 11:22:47;;;;;;;1.40;0.30;;;9.90;99.90;;;;;;5053990;28;20099;-65
2022/09/27 11:25:38;;;;;;;1.42;0.20;;;9.90;99.90;;;;;;5055851;28;20135;-66
2022/09/27 11:28:37;;;;;;;2.47;0.30;;;10.10;99.90;;;;;;5057062;28;20076;-65
2022/09/27 11:31:29;;;;;;;0.20;0.20;;;10.20;99.90;;;;;;5069699;28;20061;-66
2022/09/27 11:34:07;;;;;;;0.90;0.38;;;10.40;99.90;;;;;;5052599;28;20096;-67
2022/09/27 11:36:57;;;;;;;3.00;0.40;;;10.40;99.90;;;;;;5049558;28;20052;-67
2022/09/27 11:39:46;;;;;;;0.98;0.28;;;10.60;99.90;;;;;;5048590;28;20398;-66
2022/09/27 11:42:38;;;;;;;2.70;0.38;;;10.60;99.90;;;;;;5048283;28;20117;-66
2022/09/27 11:45:17;;;;;;;1.75;0.40;;;10.60;99.90;;;;;;5038537;28;20036;-67
2022/09/27 11:47:59;;;;;;;2.63;0.38;;;10.70;99.90;;;;;;5066020;28;20056;-67
2022/09/27 11:50:42;;;;;;;2.30;0.40;;;10.70;99.90;;;;;;5047734;28;20049;-65
2022/09/27 11:53:19;;;;;;;1.35;0.50;;;10.70;99.90;;;;;;5048151;28;20075;-66
2022/09/27 11:55:50;;;;;;;2.65;0.47;;;10.80;99.90;;;;;;5048811;28;20642;-65
2022/09/27 11:58:54;;;;;;;3.92;0.45;;;10.90;99.90;;;;;;5049120;28;20124;-67
2022/09/27 12:01:25;;;;;;;5.18;0.60;;;11.00;99.90;;;;;;5063322;28;20037;-65
2022/09/27 12:04:25;;;;;;;5.88;0.77;;;11.10;99.90;;;;;;5032233;28;20060;-65
2022/09/27 12:07:03;;;;;;;4.63;0.73;;;11.20;99.90;;;;;;5048571;28;20051;-67
2022/09/27 12:09:34;;;;;;;6.75;0.65;;;11.40;99.90;;;;;;5048205;28;20041;-64
2022/09/27 12:12:09;;;;;;;6.93;0.68;;;11.40;99.90;;;;;;5046106;28;20040;-66
2022/09/27 12:14:38;;;;;;;3.15;0.60;;;11.40;99.90;;;;;;5048289;28;20040;-65
2022/09/27 12:17:19;;;;;;;3.30;0.90;;;11.50;99.90;;;;;;5044224;28;20395;-67
2022/09/27 12:19:50;;;;;;;7.25;0.80;;;11.50;99.90;;;;;;5042687;28;20041;-67
2022/09/27 12:22:25;;;;;;;3.00;0.50;;;11.60;99.90;;;;;;5047168;28;20044;-68
2022/09/27 12:24:51;;;;;;;1.83;0.43;;;11.60;99.90;;;;;;5060920;28;20029;-67
2022/09/27 12:27:31;;;;;;;3.38;0.50;;;11.70;99.90;;;;;;5046456;28;20049;-69
2022/09/27 12:29:58;;;;;;;6.45;0.60;;;11.70;99.90;;;;;;5049150;28;20491;-68
2022/09/27 12:32:37;;;;;;;5.05;0.45;;;11.80;99.90;;;;;;5063646;28;20510;-70
2022/09/27 12:35:10;;;;;;;2.17;0.50;;;12.00;99.90;;;;;;5035804;28;20505;-65
2022/09/27 12:37:42;;;;;;;6.65;0.60;;;12.00;99.90;;;;;;5044786;28;20514;-65
2022/09/27 12:40:38;;;;;;;3.13;0.65;;;12.00;99.90;;;;;;5044794;28;20052;-67
2022/09/27 12:43:11;;;;;;;5.53;1.05;;;12.10;99.90;;;;;;5044204;28;20034;-67
2022/09/27 12:46:07;;;;;;;4.55;0.50;;;11.90;99.90;;;;;;5063897;28;20033;-64
2022/09/27 12:48:56;;;;;;;4.35;0.80;;;11.80;99.90;;;;;;5046592;28;20127;-65
2022/09/27 12:51:23;;;;;;;4.25;1.17;;;11.60;99.90;;;;;;5048621;28;20052;-64
2022/09/27 12:54:13;;;;;;;2.92;1.00;;;11.50;99.90;;;;;;5052404;28;20041;-66
2022/09/27 12:56:50;;;;;;;4.63;0.80;;;11.40;99.90;;;;;;5052037;28;20553;-69
2022/09/27 12:59:19;;;;;;;5.53;0.65;;;11.50;99.90;;;;;;5068944;28;20045;-64
2022/09/27 13:01:58;;;;;;;4.57;0.60;;;11.50;99.90;;;;;;5051840;28;20032;-64
2022/09/27 13:04:50;;;;;;;4.32;0.90;;;11.50;99.90;;;;;;5051448;28;20032;-65
2022/09/27 13:07:53;;;;;;;1.90;0.70;;;11.50;99.90;;;;;;5046941;28;20496;-65
2022/09/27 13:10:37;;;;;;;3.53;1.05;;;11.50;99.90;;;;;;5043851;28;20490;-65
2022/09/27 13:13:05;;;;;;;3.50;0.90;;;11.50;99.90;;;;;;5031319;28;20064;-67
2022/09/27 13:15:36;;;;;;;4.25;0.75;;;11.60;99.90;;;;;;5047485;28;20049;-66
2022/09/27 13:18:31;;;;;;;5.75;1.00;;;11.50;99.90;;;;;;5030804;28;20381;-66
2022/09/27 13:20:57;;;;;;;4.13;0.70;;;11.50;99.90;;;;;;5056316;28;20059;-65
2022/09/27 13:23:22;;;;;;;2.65;0.60;;;11.50;99.90;;;;;;5051362;28;20034;-63
2022/09/27 13:25:52;;;;;;;3.25;0.65;;;11.40;99.90;;;;;;5051892;28;20439;-68
2022/09/27 13:28:34;;;;;;;2.25;0.93;;;11.30;99.90;;;;;;5051584;28;20459;-65